Airfield :
LOGIN :

Register | Disclaimer

   EN    FR    IT 

 










Legend :    VFR   Marginal VFR   IFR   Intensive IFR   Very Intensive IFR
Visi :
Ceiling :
>= 8 km
>= 3000ft
5 to 8 km
1000 to 3000 ft
1500m to 5 km
500 to 1000 ft
800 to 1500m
200 to 500 ft
< 800m
< 200 ft
Symbols :   Thunderstorms  Fog  Heavy snow  Heavy precipitations  Wind > 20 kt
SIGMETs :     Misc.  Thunderstorms  Icing  Turbulence  Mountain Waves  Volcanic Ashes







- Airport Elevation : 13 ft
- IATA code : CAG


LIEE - Cagliari Elmas

CURRENT METAR :
  • 192020Z 35005KT CAVOK 16/13 Q1023

EXPIRED METARs :
  • 191950Z 31005KT CAVOK 17/13 Q1023
  • 191920Z 32005KT 9999 FEW040 18/13 Q1023
  • 191850Z 21004KT 9999 FEW040 19/12 Q1023
  • 191820Z 21007KT 9999 FEW040 19/13 Q1023
  • 191750Z 19009KT 9999 FEW040 19/14 Q1022

TAF TAF LIEE
Valid from the 19 at 18:00 until the 20 at 18:00 UTC


191700Z 1918/2018 VRB05KT 9999 FEW040
BECMG 2010/2012 16010KT
TEMPO 2015/2018 RA
No reported NOTAMs for that airfield.



MET'MAP, your aeronautical weather chart ! - Copyright ORBIFLY December 2007 - Disclaimer

ORBIFLY MET'MAP TEAM :

Programming & Development : Alexandra Zaïnal
Concept & Development : Baudouin d'Aumeries
Co-Development & Prog : Marc-Olivier Méhu
Technical & hardware support : Manuel Goepfert

Contact : metmap@orbifly.com




SOURCES & CREDITS :

   NOAA